Time;durP1;ratioP1;P1;durP2;ratioP2;P2;SDS_P1;SDS_P2;PMS_P1;PMS_P2;Temp;Humidity;BMP_temperature;BMP_pressure;BME280_temperature;BME280_humidity;BME280_pressure;Samples;Min_cycle;Max_cycle;Signal;HPM_P1;HPM_P2
2022/12/05 00:01:39;;;;;;;112.83;36.33;;;2.80;99.90;;;;;;4140046;28;21018;-76
2022/12/05 00:03:41;;;;;;;139.97;41.20;;;2.80;99.90;;;;;;4118340;28;20440;-76
2022/12/05 00:05:43;;;;;;;130.27;38.20;;;2.80;99.90;;;;;;4125414;28;20875;-76
2022/12/05 00:07:45;;;;;;;124.37;36.93;;;2.80;99.90;;;;;;4137470;28;20922;-75
2022/12/05 00:09:47;;;;;;;132.43;35.97;;;2.80;99.90;;;;;;4131860;28;20522;-76
2022/12/05 00:11:49;;;;;;;121.77;36.50;;;2.80;99.90;;;;;;4131376;28;20550;-76
2022/12/05 00:13:54;;;;;;;119.60;35.13;;;2.80;99.90;;;;;;4125408;28;20563;-76
2022/12/05 00:15:56;;;;;;;112.00;34.77;;;2.80;99.90;;;;;;4121524;28;20447;-76
2022/12/05 00:17:58;;;;;;;126.37;35.33;;;2.70;99.90;;;;;;4137270;28;20455;-77
2022/12/05 00:20:00;;;;;;;111.73;34.53;;;2.70;99.90;;;;;;4133428;28;20455;-76
2022/12/05 00:22:01;;;;;;;103.50;32.70;;;2.70;99.90;;;;;;4126316;28;20497;-76
2022/12/05 00:24:05;;;;;;;101.37;31.47;;;2.70;99.90;;;;;;4132720;28;21266;-76
2022/12/05 00:26:07;;;;;;;120.17;34.67;;;2.70;99.90;;;;;;4120462;28;20441;-77
2022/12/05 00:28:09;;;;;;;95.27;31.07;;;2.70;99.90;;;;;;4145682;28;20544;-76
2022/12/05 00:30:14;;;;;;;99.23;31.43;;;2.70;99.90;;;;;;4122994;28;20451;-76
2022/12/05 00:32:15;;;;;;;104.00;32.63;;;2.70;99.90;;;;;;4120908;28;20460;-76
2022/12/05 00:34:17;;;;;;;88.40;30.67;;;2.70;99.90;;;;;;4137705;28;20878;-75
2022/12/05 00:36:23;;;;;;;91.23;30.43;;;2.70;99.90;;;;;;4132931;28;20455;-76
2022/12/05 00:38:25;;;;;;;97.17;30.73;;;2.70;99.90;;;;;;4127173;28;20444;-76
2022/12/05 00:40:26;;;;;;;91.40;29.93;;;2.70;99.90;;;;;;4111104;28;20478;-76
2022/12/05 00:42:28;;;;;;;85.90;29.00;;;2.70;99.90;;;;;;4119605;28;20466;-76
2022/12/05 00:44:30;;;;;;;92.57;29.93;;;2.70;99.90;;;;;;4106346;28;20481;-78
2022/12/05 00:46:35;;;;;;;98.57;31.07;;;2.70;99.90;;;;;;4133848;28;20524;-76
2022/12/05 00:48:37;;;;;;;95.83;31.57;;;2.70;99.90;;;;;;4138495;28;20482;-78
2022/12/05 00:50:41;;;;;;;102.70;30.80;;;2.70;99.90;;;;;;4108867;28;21023;-77
2022/12/05 00:52:43;;;;;;;99.33;31.80;;;2.70;99.90;;;;;;4121619;28;20955;-76
2022/12/05 00:54:45;;;;;;;113.40;35.77;;;2.70;99.90;;;;;;4119362;28;20907;-76
2022/12/05 00:56:47;;;;;;;97.53;32.63;;;2.70;99.90;;;;;;4134810;28;20958;-76
2022/12/05 00:58:49;;;;;;;94.47;31.10;;;2.70;99.90;;;;;;4112720;28;20456;-76
2022/12/05 01:00:51;;;;;;;91.63;30.87;;;2.70;99.90;;;;;;4121699;28;21209;-76
2022/12/05 01:02:55;;;;;;;95.57;30.87;;;2.70;99.90;;;;;;4123616;28;20456;-77
2022/12/05 01:04:57;;;;;;;108.83;35.03;;;2.70;99.90;;;;;;4132117;28;20897;-77
2022/12/05 01:06:59;;;;;;;89.80;29.73;;;2.70;99.90;;;;;;4120297;28;20446;-77
2022/12/05 01:09:02;;;;;;;92.27;28.93;;;2.70;99.90;;;;;;4137668;28;20475;-76
2022/12/05 01:11:06;;;;;;;90.23;29.70;;;2.70;99.90;;;;;;4122086;28;21011;-77
2022/12/05 01:13:08;;;;;;;87.47;29.27;;;2.70;99.90;;;;;;4128651;28;20947;-76
2022/12/05 01:15:11;;;;;;;88.17;29.50;;;2.70;99.90;;;;;;4107115;28;20488;-76
2022/12/05 01:17:13;;;;;;;113.63;32.93;;;2.70;99.90;;;;;;4128068;28;20863;-76
2022/12/05 01:19:18;;;;;;;89.27;29.90;;;2.70;99.90;;;;;;4129492;28;20845;-78
2022/12/05 01:21:21;;;;;;;88.77;28.77;;;2.70;99.90;;;;;;4120989;28;20455;-76
2022/12/05 01:23:26;;;;;;;102.00;33.90;;;2.70;99.90;;;;;;4121412;28;20491;-76
2022/12/05 01:25:27;;;;;;;100.87;31.13;;;2.70;99.90;;;;;;4120793;28;20468;-78
2022/12/05 01:27:29;;;;;;;92.30;30.40;;;2.70;99.90;;;;;;4123177;28;20987;-76
2022/12/05 01:29:31;;;;;;;92.13;30.90;;;2.70;99.90;;;;;;4116738;28;20456;-76
2022/12/05 01:31:35;;;;;;;109.23;32.63;;;2.70;99.90;;;;;;4120222;28;20523;-77
2022/12/05 01:33:37;;;;;;;94.07;33.03;;;2.70;99.90;;;;;;4117224;28;20507;-76
2022/12/05 01:35:41;;;;;;;96.67;31.10;;;2.70;99.90;;;;;;4130605;28;20466;-77
2022/12/05 01:37:46;;;;;;;90.73;29.97;;;2.60;99.90;;;;;;4129342;28;20492;-76
2022/12/05 01:39:49;;;;;;;93.57;30.33;;;2.70;99.90;;;;;;4118958;28;20551;-76
2022/12/05 01:41:51;;;;;;;88.47;30.00;;;2.70;99.90;;;;;;4135786;28;20905;-77
2022/12/05 01:43:58;;;;;;;89.80;30.23;;;2.70;99.90;;;;;;4128154;28;20485;-79
2022/12/05 01:46:00;;;;;;;95.00;30.60;;;2.70;99.90;;;;;;4122543;28;20516;-77
2022/12/05 01:48:05;;;;;;;90.40;30.97;;;2.90;99.90;;;;;;4125107;28;20518;-76
2022/12/05 01:50:08;;;;;;;81.90;27.40;;;2.70;99.90;;;;;;4123429;28;20546;-77
2022/12/05 01:52:15;;;;;;;93.03;30.43;;;2.70;99.90;;;;;;4121046;28;20467;-76
2022/12/05 01:54:19;;;;;;;83.77;29.93;;;2.60;99.90;;;;;;4123867;28;20579;-76
2022/12/05 01:56:21;;;;;;;85.37;26.67;;;2.70;99.90;;;;;;4126157;28;20722;-78
2022/12/05 01:58:28;;;;;;;77.33;27.73;;;2.60;99.90;;;;;;4123379;28;20455;-76
2022/12/05 02:00:30;;;;;;;76.80;27.10;;;2.70;99.90;;;;;;4127219;28;20465;-78
2022/12/05 02:02:32;;;;;;;86.50;27.70;;;2.70;99.90;;;;;;4121913;28;20464;-75
2022/12/05 02:04:38;;;;;;;85.20;27.50;;;2.70;99.90;;;;;;4119009;28;20493;-77
2022/12/05 02:06:40;;;;;;;75.40;25.87;;;2.70;99.90;;;;;;4122483;28;20466;-77
2022/12/05 02:08:45;;;;;;;79.27;27.43;;;2.70;99.90;;;;;;4125611;28;20491;-77
2022/12/05 02:10:50;;;;;;;78.70;27.07;;;2.70;99.90;;;;;;4122286;28;20469;-76
2022/12/05 02:12:52;;;;;;;76.60;26.77;;;2.70;99.90;;;;;;4127180;28;20479;-77
2022/12/05 02:15:20;;;;;;;72.10;25.97;;;2.70;99.90;;;;;;4126579;28;20478;-76
2022/12/05 02:17:26;;;;;;;79.83;26.37;;;2.70;99.90;;;;;;4119124;28;20470;-76
2022/12/05 02:19:55;;;;;;;81.67;27.10;;;2.70;99.90;;;;;;4133528;28;20962;-77
2022/12/05 02:22:18;;;;;;;76.50;26.03;;;2.70;99.90;;;;;;4123969;28;20477;-77
2022/12/05 02:24:39;;;;;;;81.23;28.00;;;2.70;99.90;;;;;;4126510;28;20524;-77
2022/12/05 02:26:59;;;;;;;69.53;25.30;;;2.70;99.90;;;;;;4120395;28;20494;-77
2022/12/05 02:29:29;;;;;;;73.00;25.77;;;2.70;99.90;;;;;;4126243;28;20502;-77
2022/12/05 02:31:37;;;;;;;77.20;25.47;;;2.70;99.90;;;;;;4122560;28;20495;-76
2022/12/05 02:33:45;;;;;;;78.20;25.70;;;2.70;99.90;;;;;;4133055;28;20914;-79
2022/12/05 02:35:55;;;;;;;75.07;26.03;;;2.70;99.90;;;;;;4125016;28;20467;-77
2022/12/05 02:38:08;;;;;;;75.43;26.33;;;2.70;99.90;;;;;;4127992;28;20470;-78
2022/12/05 02:40:15;;;;;;;77.93;25.67;;;2.70;99.90;;;;;;4135260;28;20554;-76
2022/12/05 02:42:27;;;;;;;71.20;25.27;;;2.70;99.90;;;;;;4126251;28;20483;-76
2022/12/05 02:44:35;;;;;;;66.97;23.63;;;2.70;99.90;;;;;;4127727;28;20535;-78
2022/12/05 02:46:41;;;;;;;70.43;25.17;;;2.70;99.90;;;;;;4115593;28;20668;-76
2022/12/05 02:48:46;;;;;;;69.77;25.10;;;2.70;99.90;;;;;;4130890;28;20551;-76
2022/12/05 02:50:50;;;;;;;70.50;25.43;;;2.70;99.90;;;;;;4114335;28;20488;-78
2022/12/05 02:52:56;;;;;;;67.43;24.17;;;2.70;99.90;;;;;;4133609;28;20454;-79
2022/12/05 02:54:59;;;;;;;68.57;24.83;;;2.70;99.90;;;;;;4140418;28;20486;-77
2022/12/05 02:57:02;;;;;;;64.60;24.40;;;2.70;99.90;;;;;;4134543;28;20495;-77
2022/12/05 02:59:04;;;;;;;65.77;22.70;;;2.70;99.90;;;;;;4115461;28;20468;-77
2022/12/05 03:01:07;;;;;;;63.90;24.37;;;2.70;99.90;;;;;;4112351;28;20883;-77
2022/12/05 03:03:15;;;;;;;69.37;23.27;;;2.70;99.90;;;;;;4135260;28;20520;-77
2022/12/05 03:05:22;;;;;;;64.00;23.70;;;2.70;99.90;;;;;;4130696;28;20494;-78
2022/12/05 03:07:26;;;;;;;73.40;26.40;;;2.70;99.90;;;;;;4123697;28;20547;-78
2022/12/05 03:09:34;;;;;;;65.97;23.20;;;2.70;99.90;;;;;;4125010;28;20468;-77
2022/12/05 03:11:41;;;;;;;64.80;23.77;;;2.70;99.90;;;;;;4117404;28;20460;-78
2022/12/05 03:13:49;;;;;;;64.87;24.00;;;2.70;99.90;;;;;;4121209;28;20455;-77
2022/12/05 03:15:56;;;;;;;67.70;24.80;;;2.70;99.90;;;;;;4127567;28;20926;-77
2022/12/05 03:18:05;;;;;;;69.50;24.47;;;2.70;99.90;;;;;;4130845;28;20489;-80
2022/12/05 03:20:15;;;;;;;61.60;23.57;;;2.70;99.90;;;;;;4122314;28;20444;-77
2022/12/05 03:22:24;;;;;;;63.43;23.00;;;2.70;99.90;;;;;;4129878;28;20448;-77
2022/12/05 03:24:26;;;;;;;63.90;23.57;;;2.70;99.90;;;;;;4125551;28;20491;-77
2022/12/05 03:26:37;;;;;;;69.60;24.97;;;2.70;99.90;;;;;;4127616;28;20469;-78
2022/12/05 03:28:50;;;;;;;59.83;22.77;;;2.70;99.90;;;;;;4125323;28;20490;-77
2022/12/05 03:30:55;;;;;;;62.33;22.73;;;2.70;99.90;;;;;;4114444;28;20596;-76
2022/12/05 03:33:03;;;;;;;60.83;23.07;;;2.70;99.90;;;;;;4115593;28;20452;-78
2022/12/05 03:35:11;;;;;;;63.40;22.77;;;2.70;99.90;;;;;;4107749;28;20492;-78
2022/12/05 03:37:19;;;;;;;64.90;23.90;;;2.70;99.90;;;;;;4134757;28;20458;-78
2022/12/05 03:39:24;;;;;;;69.57;24.60;;;2.70;99.90;;;;;;4111826;28;20487;-78
2022/12/05 03:41:34;;;;;;;60.57;23.43;;;2.70;99.90;;;;;;4126196;28;20463;-77
2022/12/05 03:43:48;;;;;;;65.23;24.37;;;2.70;99.90;;;;;;4115193;28;20482;-77
2022/12/05 03:45:55;;;;;;;63.20;23.43;;;2.70;99.90;;;;;;4127191;28;20484;-77
2022/12/05 03:48:05;;;;;;;62.80;23.40;;;2.70;99.90;;;;;;4126204;28;20460;-80
2022/12/05 03:50:14;;;;;;;64.07;23.43;;;2.70;99.90;;;;;;4127671;28;20498;-77
2022/12/05 03:52:22;;;;;;;62.27;23.40;;;2.70;99.90;;;;;;4127446;28;20894;-77
2022/12/05 03:54:26;;;;;;;61.87;22.80;;;2.70;99.90;;;;;;4132482;28;20526;-77
2022/12/05 03:56:33;;;;;;;60.40;23.67;;;2.70;99.90;;;;;;4124373;28;20452;-77
2022/12/05 03:58:43;;;;;;;61.03;22.50;;;2.80;99.90;;;;;;4104884;28;20460;-78
2022/12/05 04:00:48;;;;;;;64.50;23.13;;;2.80;99.90;;;;;;4122457;28;20487;-77
2022/12/05 04:02:54;;;;;;;63.77;23.70;;;2.70;99.90;;;;;;4107901;28;20488;-77
2022/12/05 04:05:01;;;;;;;63.23;23.80;;;2.70;99.90;;;;;;4120676;28;20476;-77
2022/12/05 04:07:07;;;;;;;65.03;23.23;;;2.70;99.90;;;;;;4120800;28;20480;-77
2022/12/05 04:09:12;;;;;;;59.90;23.33;;;2.70;99.90;;;;;;4126458;28;21027;-76
2022/12/05 04:11:18;;;;;;;60.67;22.87;;;2.70;99.90;;;;;;4122406;28;20551;-77
2022/12/05 04:13:26;;;;;;;65.10;24.07;;;2.70;99.90;;;;;;4127630;28;20939;-77
2022/12/05 04:17:02;;;;;;;77.73;27.40;;;2.70;99.90;;;;;;4123491;28;20549;-77
2022/12/05 04:17:56;;;;;;;74.30;27.50;;;2.80;99.90;;;;;;4124402;28;21026;-77
2022/12/05 04:22:35;;;;;;;66.60;25.10;;;2.70;99.90;;;;;;4079298;29;20517;-77
2022/12/05 04:27:18;;;;;;;65.73;24.97;;;2.80;99.90;;;;;;4100415;28;20543;-79
2022/12/05 04:29:28;;;;;;;69.67;23.60;;;2.80;99.90;;;;;;4123265;28;20484;-77
2022/12/05 04:31:38;;;;;;;62.73;24.60;;;2.80;99.90;;;;;;4110171;28;20506;-76
2022/12/05 04:33:44;;;;;;;62.43;24.23;;;2.80;99.90;;;;;;4123147;28;20479;-78
2022/12/05 04:35:53;;;;;;;57.47;22.37;;;2.70;99.90;;;;;;4106329;28;20468;-78
2022/12/05 04:38:03;;;;;;;54.40;21.30;;;3.00;99.90;;;;;;4126474;28;20460;-78
2022/12/05 04:40:11;;;;;;;59.13;22.50;;;2.90;99.90;;;;;;4122273;28;20452;-78
2022/12/05 04:42:17;;;;;;;61.23;22.20;;;2.80;99.90;;;;;;4125938;28;20455;-77
2022/12/05 04:44:23;;;;;;;56.93;22.20;;;2.80;99.90;;;;;;4110871;28;20501;-79
2022/12/05 04:46:25;;;;;;;61.63;23.30;;;2.70;99.90;;;;;;4124750;28;20973;-78
2022/12/05 04:48:29;;;;;;;55.97;22.20;;;2.80;99.90;;;;;;4111798;28;20468;-78
2022/12/05 04:50:35;;;;;;;56.47;22.30;;;2.80;99.90;;;;;;4120952;28;20837;-78
2022/12/05 04:52:39;;;;;;;60.73;23.57;;;2.80;99.90;;;;;;4126811;28;20986;-77
2022/12/05 04:54:47;;;;;;;57.47;22.80;;;2.80;99.90;;;;;;4123940;28;20469;-78
2022/12/05 04:56:54;;;;;;;61.27;22.47;;;2.80;99.90;;;;;;4123980;28;20460;-78
2022/12/05 04:58:58;;;;;;;60.27;22.27;;;2.80;99.90;;;;;;4118519;28;20938;-77
2022/12/05 05:01:09;;;;;;;62.03;22.97;;;2.80;99.90;;;;;;4124810;28;20455;-77
2022/12/05 05:03:17;;;;;;;58.70;23.33;;;2.80;99.90;;;;;;4110758;28;20527;-77
2022/12/05 05:05:20;;;;;;;54.57;22.07;;;2.80;99.90;;;;;;4131366;28;20886;-78
2022/12/05 05:07:22;;;;;;;57.13;22.20;;;2.80;99.90;;;;;;4112141;28;20490;-77
2022/12/05 05:09:24;;;;;;;56.50;22.47;;;2.80;99.90;;;;;;4132269;28;20479;-77
2022/12/05 05:11:30;;;;;;;61.80;24.03;;;2.80;99.90;;;;;;4125179;28;20446;-77
2022/12/05 05:13:32;;;;;;;60.37;22.87;;;2.80;99.90;;;;;;4101248;28;20489;-78
2022/12/05 05:15:34;;;;;;;64.47;23.73;;;2.80;99.90;;;;;;4121683;28;20941;-78
2022/12/05 05:17:36;;;;;;;65.30;24.13;;;2.80;99.90;;;;;;4109594;28;20527;-78
2022/12/05 05:19:38;;;;;;;60.47;22.60;;;2.80;99.90;;;;;;4123148;28;20443;-79
2022/12/05 05:21:41;;;;;;;66.93;23.63;;;2.90;99.90;;;;;;4122482;28;20465;-77
2022/12/05 05:23:43;;;;;;;60.53;23.37;;;2.80;99.90;;;;;;4103826;28;20464;-77
2022/12/05 05:25:45;;;;;;;63.13;24.27;;;2.80;99.90;;;;;;4120814;28;20547;-77
2022/12/05 05:27:53;;;;;;;61.90;24.27;;;2.90;99.90;;;;;;4124641;28;20960;-76
2022/12/05 05:29:55;;;;;;;62.87;23.83;;;2.90;99.90;;;;;;4122641;28;20526;-77
2022/12/05 05:31:57;;;;;;;59.73;23.27;;;2.90;99.90;;;;;;4127704;28;20972;-77
2022/12/05 05:33:59;;;;;;;55.23;21.90;;;2.90;99.90;;;;;;4128009;28;20478;-77
2022/12/05 05:36:06;;;;;;;65.77;23.43;;;2.90;99.90;;;;;;4122304;28;20503;-77
2022/12/05 05:38:08;;;;;;;55.30;23.57;;;2.90;99.90;;;;;;4109301;28;20453;-77
2022/12/05 05:40:12;;;;;;;61.73;23.13;;;2.90;99.90;;;;;;4122958;28;20443;-78
2022/12/05 05:42:14;;;;;;;56.53;23.20;;;2.80;99.90;;;;;;4111810;28;20916;-76
2022/12/05 05:44:18;;;;;;;61.87;24.30;;;2.90;99.90;;;;;;4110293;28;20473;-76
2022/12/05 05:46:25;;;;;;;66.83;23.23;;;3.00;99.90;;;;;;4111518;28;20523;-78
2022/12/05 05:48:27;;;;;;;63.83;24.83;;;2.90;99.90;;;;;;4121570;28;20457;-77
2022/12/05 05:50:29;;;;;;;62.50;23.53;;;2.90;99.90;;;;;;4106759;28;20484;-78
2022/12/05 05:52:32;;;;;;;57.60;23.37;;;2.90;99.90;;;;;;4120694;28;20536;-77
2022/12/05 05:54:34;;;;;;;62.67;22.80;;;2.90;99.90;;;;;;4119619;28;20542;-76
2022/12/05 05:56:36;;;;;;;59.63;23.67;;;2.90;99.90;;;;;;4125283;28;20456;-77
2022/12/05 05:58:39;;;;;;;56.43;22.33;;;2.90;99.90;;;;;;4116907;28;20510;-76
2022/12/05 06:00:43;;;;;;;60.53;23.30;;;3.10;99.90;;;;;;4106557;28;20877;-78
2022/12/05 06:02:45;;;;;;;59.27;23.37;;;2.90;99.90;;;;;;4107652;28;20515;-79
2022/12/05 06:04:47;;;;;;;60.77;22.70;;;3.10;99.90;;;;;;4108398;28;20521;-78
2022/12/05 06:06:49;;;;;;;60.20;22.93;;;2.90;99.90;;;;;;4108124;28;20545;-77
2022/12/05 06:08:51;;;;;;;65.60;25.50;;;2.80;99.90;;;;;;4124169;28;20457;-77
2022/12/05 06:10:53;;;;;;;72.70;25.73;;;2.90;99.90;;;;;;4103745;28;20536;-76
2022/12/05 06:12:55;;;;;;;65.37;26.70;;;2.80;99.90;;;;;;4107977;28;20473;-77
2022/12/05 06:14:57;;;;;;;67.33;26.80;;;2.90;99.90;;;;;;4126395;28;20476;-77
2022/12/05 06:17:00;;;;;;;74.33;27.70;;;2.90;99.90;;;;;;4118382;28;20454;-78
2022/12/05 06:19:02;;;;;;;71.80;27.90;;;2.90;99.90;;;;;;4118890;28;20452;-76
2022/12/05 06:21:07;;;;;;;80.43;29.07;;;2.90;99.90;;;;;;4100154;28;20521;-78
2022/12/05 06:23:09;;;;;;;71.90;27.73;;;2.90;99.90;;;;;;4105473;28;21062;-76
2022/12/05 06:25:11;;;;;;;79.00;29.07;;;2.90;99.90;;;;;;4116839;28;20469;-78
2022/12/05 06:27:13;;;;;;;72.03;28.47;;;2.90;99.90;;;;;;4112324;28;20441;-76
2022/12/05 06:29:15;;;;;;;109.80;35.63;;;2.80;99.90;;;;;;4122709;28;20596;-79
2022/12/05 06:31:19;;;;;;;84.60;28.13;;;2.90;99.90;;;;;;4122326;28;20546;-77
2022/12/05 06:33:23;;;;;;;80.67;27.80;;;2.90;99.90;;;;;;4122369;28;20549;-77
2022/12/05 06:35:25;;;;;;;74.97;26.50;;;2.90;99.90;;;;;;4103241;28;20867;-77
2022/12/05 06:37:27;;;;;;;71.77;27.60;;;2.80;99.90;;;;;;4120922;28;20506;-78
2022/12/05 06:39:28;;;;;;;85.80;31.90;;;2.80;99.90;;;;;;4127531;28;20518;-76
2022/12/05 06:41:30;;;;;;;88.50;30.97;;;2.90;99.90;;;;;;4126586;28;21044;-77
2022/12/05 06:43:33;;;;;;;83.23;30.93;;;2.80;99.90;;;;;;4122469;28;20877;-77
2022/12/05 06:45:35;;;;;;;93.43;33.83;;;2.90;99.90;;;;;;4123948;28;20517;-79
2022/12/05 06:47:37;;;;;;;98.13;36.73;;;2.80;99.90;;;;;;4128261;28;21074;-78
2022/12/05 06:49:40;;;;;;;95.20;37.10;;;2.80;99.90;;;;;;4130341;28;20557;-78
2022/12/05 06:51:44;;;;;;;88.00;36.07;;;2.80;99.90;;;;;;4122136;28;20455;-78
2022/12/05 06:53:46;;;;;;;98.23;36.70;;;2.80;99.90;;;;;;4125517;28;20943;-78
2022/12/05 06:55:56;;;;;;;93.00;35.30;;;2.80;99.90;;;;;;4104815;28;20484;-77
2022/12/05 06:57:58;;;;;;;71.27;30.97;;;2.80;99.90;;;;;;4110994;28;20457;-76
2022/12/05 07:02:20;;;;;;;80.67;29.70;;;2.80;99.90;;;;;;4122441;28;20967;-76
2022/12/05 07:04:23;;;;;;;72.90;28.93;;;2.80;99.90;;;;;;4131061;28;21045;-76
2022/12/05 07:06:27;;;;;;;68.40;27.10;;;2.80;99.90;;;;;;4109113;28;20460;-76
2022/12/05 07:08:29;;;;;;;76.27;28.07;;;2.80;99.90;;;;;;4129265;28;20459;-77
2022/12/05 07:10:31;;;;;;;73.00;26.80;;;2.80;99.90;;;;;;4128280;28;21294;-77
2022/12/05 07:12:34;;;;;;;65.23;25.67;;;2.80;99.90;;;;;;4119750;28;20503;-77
2022/12/05 07:14:36;;;;;;;68.17;25.80;;;2.80;99.90;;;;;;4125483;28;20534;-76
2022/12/05 07:16:38;;;;;;;72.63;26.47;;;2.80;99.90;;;;;;4129071;28;20514;-76
2022/12/05 07:18:40;;;;;;;71.60;25.70;;;2.80;99.90;;;;;;4132010;28;20865;-76
2022/12/05 07:20:43;;;;;;;67.03;25.00;;;2.80;99.90;;;;;;4123667;28;20869;-76
2022/12/05 07:22:46;;;;;;;70.67;25.07;;;2.80;99.90;;;;;;4131023;28;20463;-76
2022/12/05 07:24:48;;;;;;;60.73;24.83;;;2.80;99.90;;;;;;4132297;28;20468;-76
2022/12/05 07:26:50;;;;;;;67.87;25.93;;;2.70;99.90;;;;;;4112775;28;20453;-76
2022/12/05 07:28:55;;;;;;;66.97;23.97;;;2.80;99.90;;;;;;4122992;28;20448;-76
2022/12/05 07:31:01;;;;;;;66.17;25.90;;;2.70;99.90;;;;;;4127859;28;20495;-77
2022/12/05 07:33:04;;;;;;;65.20;24.90;;;2.80;99.90;;;;;;4127855;28;20825;-76
2022/12/05 07:35:07;;;;;;;67.30;25.63;;;2.70;99.90;;;;;;4131501;28;20493;-78
2022/12/05 07:37:08;;;;;;;62.90;26.27;;;2.80;99.90;;;;;;4127835;28;20824;-77
2022/12/05 07:39:12;;;;;;;63.83;24.87;;;2.80;99.90;;;;;;4133226;28;20443;-76
2022/12/05 07:41:21;;;;;;;62.17;23.87;;;2.80;99.90;;;;;;4116693;28;20543;-77
2022/12/05 07:43:24;;;;;;;75.33;26.30;;;2.80;99.90;;;;;;4125439;28;20523;-77
2022/12/05 07:45:26;;;;;;;62.60;24.40;;;2.80;99.90;;;;;;4125356;28;20995;-79
2022/12/05 07:47:29;;;;;;;70.37;26.27;;;2.80;99.90;;;;;;4118613;28;20472;-76
2022/12/05 07:49:31;;;;;;;69.47;27.17;;;3.30;99.90;;;;;;4106636;28;20537;-78
2022/12/05 07:51:34;;;;;;;65.17;25.13;;;2.80;99.90;;;;;;4112313;28;20456;-76
2022/12/05 07:53:36;;;;;;;67.33;24.83;;;2.80;99.90;;;;;;4109732;28;20463;-77
2022/12/05 07:55:40;;;;;;;69.67;27.30;;;2.80;99.90;;;;;;4097945;28;20462;-75
2022/12/05 07:57:42;;;;;;;85.57;30.20;;;2.80;99.90;;;;;;4110883;28;20460;-76
2022/12/05 07:59:44;;;;;;;74.33;27.73;;;3.10;99.90;;;;;;4105865;28;20469;-76
2022/12/05 08:01:46;;;;;;;81.27;29.07;;;2.80;99.90;;;;;;4125737;28;20489;-77
2022/12/05 08:03:49;;;;;;;77.50;28.03;;;2.80;99.90;;;;;;4109537;28;20464;-77
2022/12/05 08:05:51;;;;;;;70.33;26.10;;;2.80;99.90;;;;;;4126954;28;20471;-75
2022/12/05 08:07:53;;;;;;;77.70;28.00;;;2.80;99.90;;;;;;4128563;28;20461;-75
2022/12/05 08:09:55;;;;;;;90.07;28.43;;;2.60;99.90;;;;;;4131323;28;21345;-76
2022/12/05 08:11:58;;;;;;;79.37;28.37;;;2.90;99.90;;;;;;4125645;28;20875;-76
2022/12/05 08:14:00;;;;;;;90.97;29.77;;;2.90;99.90;;;;;;4103731;28;20480;-76
2022/12/05 08:16:07;;;;;;;89.73;31.07;;;2.90;99.90;;;;;;4124203;28;20449;-75
2022/12/05 08:18:09;;;;;;;92.37;28.50;;;2.90;99.90;;;;;;4129981;28;20938;-76
2022/12/05 08:20:12;;;;;;;85.00;30.17;;;2.90;99.90;;;;;;4124291;28;20544;-76
2022/12/05 08:22:17;;;;;;;87.03;29.93;;;2.90;99.90;;;;;;4130154;28;20456;-76
2022/12/05 08:24:19;;;;;;;78.43;28.13;;;2.90;99.90;;;;;;4112504;28;20488;-76
2022/12/05 08:26:24;;;;;;;102.97;31.17;;;2.90;99.90;;;;;;4136423;28;20763;-77
2022/12/05 08:28:34;;;;;;;100.43;30.37;;;2.90;99.90;;;;;;4124024;28;20460;-76
2022/12/05 08:30:36;;;;;;;81.23;29.30;;;2.90;99.90;;;;;;4106404;28;20521;-77
2022/12/05 08:32:38;;;;;;;81.10;29.27;;;2.90;99.90;;;;;;4116926;28;20469;-78
2022/12/05 08:34:42;;;;;;;99.13;30.40;;;3.10;99.90;;;;;;4132962;28;20498;-77
2022/12/05 08:36:45;;;;;;;87.50;29.63;;;2.90;99.90;;;;;;4127456;28;20459;-77
2022/12/05 08:38:47;;;;;;;75.30;27.33;;;2.90;99.90;;;;;;4106960;28;20495;-77
2022/12/05 08:40:49;;;;;;;79.80;27.73;;;2.80;99.90;;;;;;4109353;28;20455;-76
2022/12/05 08:42:51;;;;;;;74.87;25.87;;;2.90;99.90;;;;;;4109940;28;21647;-76
2022/12/05 08:44:55;;;;;;;77.43;26.80;;;2.90;99.90;;;;;;4104708;28;20507;-77
2022/12/05 08:46:57;;;;;;;71.10;24.77;;;2.90;99.90;;;;;;4103629;28;20472;-76
2022/12/05 08:49:02;;;;;;;69.80;23.60;;;2.90;99.90;;;;;;4120245;28;20874;-76
2022/12/05 08:51:06;;;;;;;57.43;22.80;;;2.90;99.90;;;;;;4123052;28;20588;-75
2022/12/05 08:53:08;;;;;;;54.80;22.23;;;2.90;99.90;;;;;;4126874;28;20460;-75
2022/12/05 08:55:10;;;;;;;61.83;21.70;;;2.80;99.90;;;;;;4128478;28;20500;-77
2022/12/05 08:57:12;;;;;;;64.27;22.77;;;3.00;99.90;;;;;;4128589;28;20467;-75
2022/12/05 08:59:13;;;;;;;59.87;22.73;;;2.80;99.90;;;;;;4119736;28;20456;-75
2022/12/05 09:01:19;;;;;;;60.00;22.27;;;2.90;99.90;;;;;;4123497;28;20453;-77
2022/12/05 09:03:21;;;;;;;54.17;21.53;;;2.90;99.90;;;;;;4110663;28;20455;-76
2022/12/05 09:05:23;;;;;;;51.53;20.13;;;2.90;99.90;;;;;;4120009;28;20539;-76
2022/12/05 09:07:25;;;;;;;54.30;20.83;;;2.90;99.90;;;;;;4121806;28;20468;-77
2022/12/05 09:09:27;;;;;;;67.53;22.90;;;2.90;99.90;;;;;;4103140;28;20463;-75
2022/12/05 09:11:31;;;;;;;63.67;23.07;;;2.80;99.90;;;;;;4123718;28;20520;-76
2022/12/05 09:13:36;;;;;;;50.10;19.97;;;2.80;99.90;;;;;;4108320;28;20457;-77
2022/12/05 09:15:39;;;;;;;51.73;22.40;;;2.80;99.90;;;;;;4122932;28;20975;-78
2022/12/05 09:17:42;;;;;;;50.90;20.87;;;2.80;99.90;;;;;;4119111;28;20467;-76
2022/12/05 09:19:45;;;;;;;57.10;20.80;;;2.90;99.90;;;;;;4111314;28;20512;-76
2022/12/05 09:21:47;;;;;;;48.83;19.50;;;2.70;99.90;;;;;;4130082;28;20510;-78
2022/12/05 09:23:49;;;;;;;56.43;21.13;;;2.70;99.90;;;;;;4125984;28;20542;-79
2022/12/05 09:25:56;;;;;;;51.40;20.60;;;2.90;99.90;;;;;;4121246;28;20456;-75
2022/12/05 09:27:59;;;;;;;53.77;20.40;;;2.70;99.90;;;;;;4124690;28;20475;-76
2022/12/05 09:30:01;;;;;;;50.70;18.87;;;2.90;99.90;;;;;;4119107;28;20452;-75
2022/12/05 09:32:03;;;;;;;45.53;18.50;;;2.70;99.90;;;;;;4108127;28;20609;-76
2022/12/05 09:34:06;;;;;;;46.30;17.60;;;2.70;99.90;;;;;;4132736;28;20514;-75
2022/12/05 09:36:11;;;;;;;45.83;18.07;;;2.90;99.90;;;;;;4123766;28;20447;-76
2022/12/05 09:38:13;;;;;;;48.87;18.50;;;2.70;99.90;;;;;;4102734;28;20461;-76
2022/12/05 09:40:17;;;;;;;44.20;18.37;;;2.70;99.90;;;;;;4123058;28;20503;-77
2022/12/05 09:42:38;;;;;;;44.50;17.50;;;2.70;99.90;;;;;;4132019;28;20497;-75
2022/12/05 09:44:45;;;;;;;45.53;18.27;;;2.70;99.90;;;;;;4124650;28;20476;-76
2022/12/05 09:46:54;;;;;;;42.53;17.33;;;2.70;99.90;;;;;;4119313;28;20498;-75
2022/12/05 09:48:58;;;;;;;46.50;17.33;;;2.70;99.90;;;;;;4124831;28;20469;-79
2022/12/05 09:51:03;;;;;;;46.43;18.33;;;2.70;99.90;;;;;;4121058;28;20480;-77
2022/12/05 09:53:11;;;;;;;37.83;17.20;;;2.70;99.90;;;;;;4126399;28;20451;-75
2022/12/05 09:55:16;;;;;;;45.43;17.07;;;2.70;99.90;;;;;;4117215;28;20499;-75
2022/12/05 09:57:23;;;;;;;39.80;17.80;;;2.70;99.90;;;;;;4116935;28;20459;-75
2022/12/05 09:59:25;;;;;;;42.63;17.03;;;2.60;99.90;;;;;;4126079;28;20455;-77
2022/12/05 10:01:35;;;;;;;43.43;18.10;;;2.80;99.90;;;;;;4124966;28;20470;-75
2022/12/05 10:03:43;;;;;;;36.97;15.70;;;2.60;99.90;;;;;;4123481;28;20448;-76
2022/12/05 10:05:50;;;;;;;43.07;17.17;;;2.70;99.90;;;;;;4107070;28;20492;-76
2022/12/05 10:08:02;;;;;;;39.77;16.93;;;2.70;99.90;;;;;;4122939;28;20526;-77
2022/12/05 10:10:21;;;;;;;43.67;18.40;;;2.70;99.90;;;;;;4124254;28;20460;-77
2022/12/05 10:12:43;;;;;;;48.10;17.93;;;2.70;99.90;;;;;;4110434;28;20457;-77
2022/12/05 10:14:56;;;;;;;42.30;17.30;;;2.70;99.90;;;;;;4113150;28;20954;-76
2022/12/05 10:17:08;;;;;;;39.03;16.70;;;2.70;99.90;;;;;;4125566;28;20463;-76
2022/12/05 10:19:16;;;;;;;43.00;17.90;;;2.70;99.90;;;;;;4107538;28;20909;-79
2022/12/05 10:21:25;;;;;;;42.40;18.20;;;2.70;99.90;;;;;;4121704;28;20542;-78
2022/12/05 10:23:35;;;;;;;40.67;17.33;;;2.70;99.90;;;;;;4120908;28;20462;-77
2022/12/05 10:25:41;;;;;;;38.30;16.87;;;3.20;99.90;;;;;;4109112;28;20448;-75
2022/12/05 10:27:49;;;;;;;45.47;17.43;;;3.00;99.90;;;;;;4121864;28;20861;-75
2022/12/05 10:29:57;;;;;;;43.00;16.80;;;2.60;99.90;;;;;;4107619;28;20549;-76
2022/12/05 10:32:05;;;;;;;40.30;16.33;;;2.80;99.90;;;;;;4124679;28;20472;-74
2022/12/05 10:34:16;;;;;;;42.23;16.80;;;2.70;99.90;;;;;;4127296;28;20490;-74
2022/12/05 10:36:18;;;;;;;40.63;16.40;;;2.70;99.90;;;;;;4132777;28;20491;-78
2022/12/05 10:38:25;;;;;;;40.27;16.17;;;2.60;99.90;;;;;;4114105;28;20460;-78
2022/12/05 10:40:35;;;;;;;37.30;16.20;;;2.60;99.90;;;;;;4125529;28;20451;-75
2022/12/05 10:42:38;;;;;;;38.83;16.23;;;2.60;99.90;;;;;;4124297;28;20463;-75
2022/12/05 10:44:40;;;;;;;38.63;15.10;;;2.60;99.90;;;;;;4125499;28;20558;-75
2022/12/05 10:46:42;;;;;;;33.90;15.50;;;2.60;99.90;;;;;;4126472;28;20462;-77
2022/12/05 10:48:44;;;;;;;35.60;15.27;;;2.50;99.90;;;;;;4128633;28;20991;-74